Archival Weather

Chicago O'Hare International

Chicago, Illinois (KORD)

Report from: Wednesday, July 19, 2023 9:51 PM CDT
Current time: Thursday, July 18, 2024 10:15 PM CDT

Current weather – Weather history – Daily summaries
Weather forecast

Temperature25.0°C (77.0°F)
Dew point14.4°C (57.9°F)
Winds 3 kts (1.5 m/s, 3.5 mph) South-Southwest (200°)
Visibility10 mi. (16.1 km)
Clouds Few clouds 25,000 ft. (7,620 m)
Scattered clouds 30,000 ft. (9,144 m)
Altimeter29.99 in.Hg (1016 mB)
Relative humidity52 %
Density altitude1,327 ft. (404 m)
Sea-level pressure101.5 kPa (1015 mB, 29.97 in.Hg)
Remarks Automated weather observing station with precipitation discriminator
Pressure falling, then rising
Flight conditions Visual Meteorological Conditions
Raw dataKORD 200251Z 20003KT 10SM FEW250 SCT300 25/14 A2999 RMK AO2 SLP150 T02500144 55000
An error has occurred. This application may no longer respond until reloaded. Reload 🗙